createdAt,value
2018-02-19T00:00:51.146Z,91.29
2018-02-19T00:02:00.873Z,91.95
2018-02-19T00:03:10.089Z,91
2018-02-19T00:04:19.922Z,90.63
2018-02-19T00:05:29.644Z,90.63
2018-02-19T00:06:39.641Z,90.81
2018-02-19T00:07:49.640Z,91.29
2018-02-19T00:08:59.381Z,91.19
2018-02-19T00:10:09.107Z,91.86
2018-02-19T00:11:19.101Z,92.52
2018-02-19T00:12:28.832Z,91.76
2018-02-19T00:13:38.867Z,91.76
2018-02-19T00:14:48.327Z,92.14
2018-02-19T00:15:58.047Z,91.86
2018-02-19T00:17:07.775Z,92.05
2018-02-19T00:18:17.235Z,91.1
2018-02-19T00:19:26.692Z,91.29
2018-02-19T00:20:36.415Z,91.29
2018-02-19T00:21:46.403Z,91
2018-02-19T00:22:56.124Z,91.19
2018-02-19T00:24:05.850Z,91.29
2018-02-19T00:25:15.581Z,91.29
2018-02-19T00:26:25.565Z,91.38
2018-02-19T00:27:35.288Z,91.67
2018-02-19T00:28:45.068Z,91.48
2018-02-19T00:29:54.792Z,91.29
2018-02-19T00:31:04.517Z,91.57
2018-02-19T00:32:13.985Z,91
2018-02-19T00:33:23.167Z,91.38
2018-02-19T00:34:32.913Z,91.57
2018-02-19T00:35:42.937Z,92.14
2018-02-19T00:36:52.972Z,91.76
2018-02-19T00:38:02.961Z,91.86
2018-02-19T00:39:12.431Z,91.95
2018-02-19T00:40:21.886Z,92.24
2018-02-19T00:41:31.078Z,92.14
2018-02-19T00:42:40.539Z,92.05
2018-02-19T00:43:50.531Z,92.14
2018-02-19T00:45:00.269Z,92.43
2018-02-19T00:46:09.452Z,92.43
2018-02-19T00:47:18.907Z,92.61
2018-02-19T00:48:28.906Z,91.86
2018-02-19T00:49:38.357Z,92.24
2018-02-19T00:50:48.079Z,92.71
2018-02-19T00:51:57.810Z,92.33
2018-02-19T00:53:07.266Z,92.43
2018-02-19T00:54:16.994Z,92.24
2018-02-19T00:55:26.722Z,92.43
2018-02-19T00:56:35.913Z,91.95
2018-02-19T00:57:45.934Z,91.95
2018-02-19T00:58:55.689Z,92.71
2018-02-19T01:00:05.420Z,92.52
2018-02-19T01:01:14.878Z,92.99
2018-02-19T01:02:24.597Z,92.99
2018-02-19T01:03:34.319Z,93.08
2018-02-19T01:04:44.044Z,92.9
2018-02-19T01:05:53.774Z,92.71
2018-02-19T01:07:03.776Z,92.8
2018-02-19T01:08:13.765Z,93.08
2018-02-19T01:09:23.773Z,93.18
2018-02-19T01:10:33.227Z,93.18
2018-02-19T01:11:42.949Z,93.37
2018-02-19T01:12:52.404Z,93.37
2018-02-19T01:14:02.226Z,93.37
2018-02-19T01:15:11.955Z,93.56
2018-02-19T01:16:21.944Z,93.84
2018-02-19T01:17:31.932Z,94.32
2018-02-19T01:18:41.952Z,93.84
2018-02-19T01:19:51.674Z,94.23
2018-02-19T01:21:01.673Z,94.7
2018-02-19T01:22:11.672Z,94.79
2018-02-19T01:23:21.676Z,94.79
2018-02-19T01:24:31.670Z,95.07
2018-02-19T01:25:41.394Z,95.07
2018-02-19T01:26:51.406Z,94.89
2018-02-19T01:28:01.132Z,95.55
2018-02-19T01:29:10.362Z,95.83
2018-02-19T01:30:20.085Z,95.17
2018-02-19T01:31:29.805Z,95.45
2018-02-19T01:32:39.261Z,95.45
2018-02-19T01:33:48.754Z,95.55
2018-02-19T01:34:58.743Z,95.55
2018-02-19T01:36:08.464Z,95.74
2018-02-19T01:37:17.977Z,95.36
2018-02-19T01:38:27.167Z,96.21
2018-02-19T01:39:36.895Z,95.55
2018-02-19T01:40:46.886Z,95.55
2018-02-19T01:41:56.610Z,95.74
2018-02-19T01:43:06.440Z,95.55
2018-02-19T01:44:16.263Z,95.45
2018-02-19T01:45:25.724Z,95.93
2018-02-19T01:46:35.454Z,95.74
2018-02-19T01:47:45.440Z,95.55
2018-02-19T01:48:55.472Z,95.74
2018-02-19T01:50:05.479Z,95.74
2018-02-19T01:51:15.206Z,95.55
2018-02-19T01:52:25.194Z,95.93
2018-02-19T01:53:34.648Z,95.74
2018-02-19T01:54:44.642Z,95.55
2018-02-19T01:55:54.375Z,95.93
2018-02-19T01:57:04.136Z,95.64
2018-02-19T01:58:14.128Z,96.02
2018-02-19T01:59:23.865Z,95.74
2018-02-19T02:00:33.364Z,96.02
2018-02-19T02:01:43.091Z,95.93
2018-02-19T02:02:53.075Z,95.93
2018-02-19T02:04:02.560Z,96.12
2018-02-19T02:05:11.751Z,95.83
2018-02-19T02:06:21.218Z,96.69
2018-02-19T02:07:30.974Z,95.55
2018-02-19T02:08:40.705Z,95.74
2018-02-19T02:09:50.177Z,95.93
2018-02-19T02:11:00.227Z,95.36
2018-02-19T02:12:10.253Z,95.45
2018-02-19T02:13:19.715Z,96.12
2018-02-19T02:14:29.433Z,95.74
2018-02-19T02:15:39.474Z,95.64
2018-02-19T02:16:49.462Z,95.17
2018-02-19T02:17:58.648Z,95.55
2018-02-19T02:19:08.108Z,95.17
2018-02-19T02:20:17.849Z,95.74
2018-02-19T02:21:27.302Z,95.17
2018-02-19T02:22:37.020Z,94.6
2018-02-19T02:23:46.763Z,94.7
2018-02-19T02:24:56.753Z,95.07
2018-02-19T02:26:05.937Z,95.17
2018-02-19T02:27:15.135Z,95.26
2018-02-19T02:28:25.158Z,95.26
2018-02-19T02:29:34.891Z,95.64
2018-02-19T02:30:44.614Z,95.55
2018-02-19T02:31:53.835Z,94.89
2018-02-19T02:33:03.083Z,96.21
2018-02-19T02:34:12.813Z,95.93
2018-02-19T02:35:22.281Z,96.02
2018-02-19T02:36:32.279Z,95.45
2018-02-19T02:37:42.301Z,95.93
2018-02-19T02:38:52.315Z,95.45
2018-02-19T02:40:02.057Z,95.45
2018-02-19T02:41:12.073Z,95.93
2018-02-19T02:42:21.548Z,95.55
2018-02-19T02:43:31.304Z,95.64
2018-02-19T02:44:40.536Z,95.64
2018-02-19T02:45:49.783Z,96.31
2018-02-19T02:46:59.605Z,96.12
2018-02-19T02:48:09.382Z,96.02
2018-02-19T02:49:18.857Z,95.93
2018-02-19T02:50:28.646Z,95.64
2018-02-19T02:51:37.867Z,95.64
2018-02-19T02:52:47.622Z,95.07
2018-02-19T02:53:57.105Z,96.02
2018-02-19T02:55:06.875Z,95.93
2018-02-19T02:56:16.394Z,95.74
2018-02-19T02:57:26.150Z,96.02
2018-02-19T02:58:35.361Z,95.83
2018-02-19T02:59:45.128Z,96.4
2018-02-19T03:00:54.335Z,95.55
2018-02-19T03:02:04.373Z,96.12
2018-02-19T03:03:14.145Z,95.93
2018-02-19T03:04:23.913Z,96.12
2018-02-19T03:05:33.682Z,96.5
2018-02-19T03:06:42.624Z,96.21
2018-02-19T03:07:52.370Z,96.02
2018-02-19T03:09:01.936Z,95.93
2018-02-19T03:10:11.465Z,96.21
2018-02-19T03:11:21.018Z,95.83
2018-02-19T03:12:31.075Z,95.93
2018-02-19T03:13:40.550Z,96.02
2018-02-19T03:14:50.303Z,96.12
2018-02-19T03:15:59.768Z,96.02
2018-02-19T03:17:09.771Z,96.02
2018-02-19T03:18:19.783Z,96.02
2018-02-19T03:19:29.518Z,96.02
2018-02-19T03:20:39.000Z,95.55
2018-02-19T03:21:48.474Z,96.02
2018-02-19T03:22:58.486Z,95.55
2018-02-19T03:24:07.957Z,95.93
2018-02-19T03:25:17.723Z,95.74
2018-02-19T03:26:27.476Z,95.55
2018-02-19T03:27:37.227Z,95.17
2018-02-19T03:28:47.243Z,95.07
2018-02-19T03:29:57.274Z,94.98
2018-02-19T03:31:06.759Z,94.98
2018-02-19T03:32:16.230Z,95.17
2018-02-19T03:33:25.966Z,95.07
2018-02-19T03:34:35.710Z,95.55
2018-02-19T03:35:45.454Z,95.36
2018-02-19T03:36:54.932Z,95.74
2018-02-19T03:38:04.415Z,95.93
2018-02-19T03:39:13.883Z,95.93
2018-02-19T03:40:23.365Z,96.31
2018-02-19T03:41:33.377Z,96.12
2018-02-19T03:42:43.121Z,95.74
2018-02-19T03:43:52.857Z,96.02
2018-02-19T03:45:02.076Z,95.74
2018-02-19T03:46:11.298Z,95.93
2018-02-19T03:47:20.782Z,95.93
2018-02-19T03:48:30.529Z,95.64
2018-02-19T03:49:40.003Z,95.93
2018-02-19T03:50:50.018Z,95.93
2018-02-19T03:51:59.229Z,95.64
2018-02-19T03:53:08.431Z,94.98
2018-02-19T03:54:18.434Z,95.07
2018-02-19T03:55:28.438Z,94.7
2018-02-19T03:56:38.202Z,94.51
2018-02-19T03:57:47.408Z,94.6
2018-02-19T03:58:57.422Z,94.79
2018-02-19T04:00:07.444Z,94.6
2018-02-19T04:01:16.922Z,94.7
2018-02-19T04:02:26.936Z,94.6
2018-02-19T04:03:36.675Z,94.6
2018-02-19T04:04:46.689Z,94.89
2018-02-19T04:05:56.701Z,94.89
2018-02-19T04:07:06.442Z,94.6
2018-02-19T04:08:16.191Z,94.98
2018-02-19T04:09:25.676Z,94.6
2018-02-19T04:10:35.682Z,95.26
2018-02-19T04:11:44.885Z,95.17
2018-02-19T04:12:54.629Z,95.26
2018-02-19T04:14:04.109Z,95.36
2018-02-19T04:15:14.138Z,94.89
2018-02-19T04:16:23.895Z,94.23
2018-02-19T04:17:33.939Z,94.7
2018-02-19T04:18:43.681Z,94.42
2018-02-19T04:19:53.173Z,94.7
2018-02-19T04:21:02.394Z,94.13
2018-02-19T04:22:12.173Z,94.23
2018-02-19T04:23:21.662Z,94.6
2018-02-19T04:24:31.399Z,94.6
2018-02-19T04:25:40.900Z,94.79
2018-02-19T04:26:50.663Z,94.7
2018-02-19T04:28:00.434Z,94.6
2018-02-19T04:29:10.474Z,94.7
2018-02-19T04:30:20.231Z,94.7
2018-02-19T04:31:30.245Z,94.6
2018-02-19T04:32:39.971Z,94.89
2018-02-19T04:33:49.166Z,95.45
2018-02-19T04:34:59.180Z,94.89
2018-02-19T04:36:08.932Z,94.7
2018-02-19T04:37:18.678Z,94.79
2018-02-19T04:38:28.686Z,95.12
2018-02-19T04:39:38.428Z,95.03
2018-02-19T04:40:48.181Z,95.45
2018-02-19T04:41:58.190Z,95.78
2018-02-19T04:43:07.936Z,95.88
2018-02-19T04:44:17.138Z,95.64
2018-02-19T04:45:26.616Z,95.5
2018-02-19T04:46:36.110Z,95.45
2018-02-19T04:47:46.104Z,95.5
2018-02-19T04:48:55.849Z,94.98
2018-02-19T04:50:05.583Z,94.84
2018-02-19T04:51:15.058Z,95.69
2018-02-19T04:52:24.803Z,95.4
2018-02-19T04:53:34.568Z,96.26
2018-02-19T04:54:44.338Z,95.69
2018-02-19T04:55:54.090Z,95.69
2018-02-19T04:57:04.088Z,94.7
2018-02-19T04:58:13.548Z,95.83
2018-02-19T04:59:23.576Z,95.55
2018-02-19T05:00:33.314Z,95.69
2018-02-19T05:01:43.314Z,95.21
2018-02-19T05:02:53.320Z,94.84
2018-02-19T05:04:02.790Z,95.03
2018-02-19T05:05:12.260Z,94.7
2018-02-19T05:06:22.285Z,94.93
2018-02-19T05:07:32.024Z,95.64
2018-02-19T05:08:41.486Z,95.59
2018-02-19T05:09:51.215Z,95.26
2018-02-19T05:11:01.257Z,95.69
2018-02-19T05:12:10.731Z,95.59
2018-02-19T05:13:20.198Z,95.45
2018-02-19T05:14:29.665Z,94.79
2018-02-19T05:15:38.871Z,94.89
2018-02-19T05:16:48.610Z,94.98
2018-02-19T05:17:58.360Z,95.07
2018-02-19T05:19:08.097Z,95.64
2018-02-19T05:20:17.848Z,95.45
2018-02-19T05:21:27.329Z,94.79
2018-02-19T05:22:37.078Z,94.89
2018-02-19T05:23:47.095Z,94.89
2018-02-19T05:24:56.296Z,95.36
2018-02-19T05:26:05.765Z,94.79
2018-02-19T05:27:15.510Z,95.07
2018-02-19T05:28:25.260Z,94.79
2018-02-19T05:29:34.463Z,94.6
2018-02-19T05:30:44.220Z,94.79
2018-02-19T05:31:53.706Z,94.51
2018-02-19T05:33:03.297Z,94.51
2018-02-19T05:34:13.315Z,94.89
2018-02-19T05:35:22.789Z,94.42
2018-02-19T05:36:32.812Z,93.94
2018-02-19T05:37:42.041Z,93.94
2018-02-19T05:38:51.786Z,94.79
2018-02-19T05:40:01.542Z,94.42
2018-02-19T05:41:11.016Z,94.89
2018-02-19T05:42:20.758Z,94.7
2018-02-19T05:43:29.691Z,95.07
2018-02-19T05:44:39.245Z,93.94
2018-02-19T05:45:48.729Z,94.6
2018-02-19T05:46:58.212Z,94.32
2018-02-19T05:48:07.960Z,94.04
2018-02-19T05:49:17.966Z,93.94
2018-02-19T05:50:27.450Z,93.94
2018-02-19T05:51:36.924Z,94.42
2018-02-19T05:52:46.686Z,93.65
2018-02-19T05:53:56.736Z,93.94
2018-02-19T05:55:05.946Z,93.56
2018-02-19T05:56:15.687Z,93.27
2018-02-19T05:57:25.698Z,94.13
2018-02-19T05:58:35.174Z,94.42
2018-02-19T05:59:45.189Z,94.51
2018-02-19T06:00:54.949Z,93.37
2018-02-19T06:02:04.976Z,93.94
2018-02-19T06:03:14.725Z,92.9
2018-02-19T06:04:24.495Z,92.99
2018-02-19T06:05:34.512Z,93.46
2018-02-19T06:06:44.522Z,93.37
2018-02-19T06:07:54.271Z,93.27
2018-02-19T06:09:04.279Z,92.52
2018-02-19T06:10:14.282Z,92.9
2018-02-19T06:11:23.765Z,92.99
2018-02-19T06:12:33.292Z,92.24
2018-02-19T06:13:43.054Z,93.08
2018-02-19T06:14:53.075Z,93.08
2018-02-19T06:16:03.096Z,92.24
2018-02-19T06:17:12.849Z,92.33
2018-02-19T06:18:22.052Z,92.33
2018-02-19T06:19:31.253Z,92.52
2018-02-19T06:20:41.263Z,92.52
2018-02-19T06:21:50.460Z,91.86
2018-02-19T06:22:59.952Z,91.95
2018-02-19T06:24:09.979Z,92.52
2018-02-19T06:25:19.730Z,92.33
2018-02-19T06:26:29.487Z,92.71
2018-02-19T06:27:39.481Z,92.14
2018-02-19T06:28:49.497Z,92.52
2018-02-19T06:29:58.991Z,92.05
2018-02-19T06:31:08.724Z,92.33
2018-02-19T06:32:17.660Z,92.33
2018-02-19T06:33:27.135Z,91.76
2018-02-19T06:34:36.870Z,92.14
2018-02-19T06:35:46.882Z,91.19
2018-02-19T06:36:57.018Z,91.29
2018-02-19T06:38:07.036Z,91.29
2018-02-19T06:39:17.055Z,91.48
2018-02-19T06:40:26.283Z,91.29
2018-02-19T06:41:36.092Z,91
2018-02-19T06:42:45.553Z,91.29
2018-02-19T06:43:55.544Z,90.53
2018-02-19T06:45:05.285Z,90.25
2018-02-19T06:46:15.036Z,90.44
2018-02-19T06:47:24.780Z,90.53
2018-02-19T06:48:34.532Z,91.38
2018-02-19T06:49:44.003Z,91.1
2018-02-19T06:50:53.467Z,91.19
2018-02-19T06:52:02.949Z,91.29
2018-02-19T06:53:12.684Z,90.63
2018-02-19T06:54:22.519Z,91.48
2018-02-19T06:55:32.317Z,90.63
2018-02-19T06:56:42.043Z,90.72
2018-02-19T06:57:51.787Z,90.91
2018-02-19T06:59:01.253Z,90.72
2018-02-19T07:00:11.369Z,90.81
2018-02-19T07:01:20.845Z,90.44
2018-02-19T07:02:30.575Z,91.19
2018-02-19T07:03:40.056Z,91
2018-02-19T07:04:49.318Z,90.81
2018-02-19T07:05:59.343Z,90.53
2018-02-19T07:07:09.163Z,90.34
2018-02-19T07:08:19.154Z,90.34
2018-02-19T07:09:29.161Z,90.06
2018-02-19T07:10:38.911Z,90.15
2018-02-19T07:11:48.677Z,90.53
2018-02-19T07:12:58.407Z,89.2
2018-02-19T07:14:07.888Z,89.77
2018-02-19T07:15:17.749Z,89.68
2018-02-19T07:16:27.525Z,89.96
2018-02-19T07:17:36.990Z,89.68
2018-02-19T07:18:46.732Z,89.72
2018-02-19T07:19:56.796Z,89.34
2018-02-19T07:21:06.789Z,88.87
2018-02-19T07:22:16.544Z,88.87
2018-02-19T07:23:26.016Z,88.78
2018-02-19T07:24:35.492Z,88.49
2018-02-19T07:25:45.498Z,88.49
2018-02-19T07:26:54.700Z,88.59
2018-02-19T07:28:04.180Z,88.96
2018-02-19T07:29:13.752Z,88.49
2018-02-19T07:30:23.537Z,88.59
2018-02-19T07:31:33.021Z,88.21
2018-02-19T07:32:43.035Z,88.4
2018-02-19T07:33:53.056Z,88.02
2018-02-19T07:35:02.968Z,88.87
2018-02-19T07:36:12.444Z,88.68
2018-02-19T07:37:22.441Z,87.54
2018-02-19T07:38:32.187Z,87.45
2018-02-19T07:39:42.189Z,87.35
2018-02-19T07:40:51.657Z,87.54
2018-02-19T07:42:01.404Z,87.54
2018-02-19T07:43:10.880Z,87.54
2018-02-19T07:44:20.171Z,87.16
2018-02-19T07:45:29.695Z,87.26
2018-02-19T07:46:38.889Z,87.16
2018-02-19T07:47:48.356Z,87.16
2018-02-19T07:48:58.122Z,86.79
2018-02-19T07:50:07.863Z,86.12
2018-02-19T07:51:17.390Z,86.69
2018-02-19T07:52:27.476Z,87.16
2018-02-19T07:53:36.682Z,87.45
2018-02-19T07:54:46.484Z,86.98
2018-02-19T07:55:56.234Z,87.07
2018-02-19T07:57:05.703Z,86.69
2018-02-19T07:58:15.441Z,86.79
2018-02-19T07:59:25.444Z,86.98
2018-02-19T08:00:34.912Z,86.12
2018-02-19T08:01:44.676Z,86.12
2018-02-19T08:02:54.431Z,85.69
2018-02-19T08:04:03.919Z,85.46
2018-02-19T08:05:13.646Z,85.08
2018-02-19T08:06:23.394Z,85.69
2018-02-19T08:07:33.410Z,84.36
2018-02-19T08:08:42.617Z,85.69
2018-02-19T08:09:52.358Z,85.31
2018-02-19T08:11:02.475Z,84.84
2018-02-19T08:12:12.219Z,84.55
2018-02-19T08:13:22.096Z,83.42
2018-02-19T08:14:31.823Z,83.04
2018-02-19T08:15:41.030Z,83.13
2018-02-19T08:16:50.798Z,83.42
2018-02-19T08:18:00.962Z,83.7
2018-02-19T08:19:11.165Z,83.7
2018-02-19T08:20:20.906Z,83.04
2018-02-19T08:21:30.114Z,83.13
2018-02-19T08:22:39.594Z,83.8
2018-02-19T08:23:49.330Z,82.47
2018-02-19T08:24:59.295Z,82.85
2018-02-19T08:26:09.309Z,82.09
2018-02-19T08:27:19.373Z,82.47
2018-02-19T08:28:29.120Z,83.13
2018-02-19T08:29:38.588Z,82.56
2018-02-19T08:30:48.718Z,81.9
2018-02-19T08:31:58.254Z,82.28
2018-02-19T08:33:07.726Z,82.13
2018-02-19T08:34:17.734Z,81.56
2018-02-19T08:35:27.476Z,81.37
2018-02-19T08:36:36.953Z,81.37
2018-02-19T08:37:46.435Z,81.94
2018-02-19T08:38:55.964Z,80.99
2018-02-19T08:40:04.934Z,80.9
2018-02-19T08:41:14.971Z,81.18
2018-02-19T08:42:24.778Z,81.37
2018-02-19T08:43:34.601Z,81.09
2018-02-19T08:44:44.155Z,81.47
2018-02-19T08:45:54.165Z,80.99
2018-02-19T08:47:03.910Z,81.85
2018-02-19T08:48:13.389Z,81.37
2018-02-19T08:49:22.876Z,80.8
2018-02-19T08:50:32.900Z,80.24
2018-02-19T08:51:42.923Z,80.14
2018-02-19T08:52:52.934Z,80.33
2018-02-19T08:54:02.410Z,79.47
2018-02-19T08:55:11.894Z,78.81
2018-02-19T08:56:21.914Z,78.81
2018-02-19T08:57:31.656Z,78.53
2018-02-19T08:58:41.412Z,79.1
2018-02-19T08:59:51.247Z,79.1
2018-02-19T09:01:00.990Z,79.19
2018-02-19T09:02:10.464Z,78.81
2018-02-19T09:03:19.930Z,77.86
2018-02-19T09:04:29.668Z,78.72
2018-02-19T09:05:38.891Z,79.04
2018-02-19T09:06:48.688Z,78.75
2018-02-19T09:07:58.177Z,78.75
2018-02-19T09:09:07.920Z,77.81
2018-02-19T09:10:17.941Z,77.43
2018-02-19T09:11:27.708Z,77.52
2018-02-19T09:12:37.179Z,77.81
2018-02-19T09:13:47.137Z,77.52
2018-02-19T09:14:56.886Z,76.95
2018-02-19T09:16:06.364Z,76.48
2018-02-19T09:17:15.580Z,76.57
2018-02-19T09:18:25.610Z,76.86
2018-02-19T09:19:35.616Z,76.57
2018-02-19T09:20:45.102Z,76.95
2018-02-19T09:21:54.856Z,76.39
2018-02-19T09:23:04.874Z,75.91
2018-02-19T09:24:14.624Z,75.72
2018-02-19T09:25:23.576Z,75.57
2018-02-19T09:26:33.368Z,75.62
2018-02-19T09:27:42.868Z,76.14
2018-02-19T09:28:52.641Z,75.76
2018-02-19T09:30:02.665Z,75
2018-02-19T09:31:12.413Z,75
2018-02-19T09:32:21.895Z,74.52
2018-02-19T09:33:31.639Z,74.81
2018-02-19T09:34:41.384Z,73.67
2018-02-19T09:35:51.384Z,74.33
2018-02-19T09:37:01.131Z,74.62
2018-02-19T09:38:10.908Z,74.75
2018-02-19T09:39:21.019Z,74.75
2018-02-19T09:40:30.487Z,73.71
2018-02-19T09:41:40.562Z,73.33
2018-02-19T09:42:50.207Z,72.75
2018-02-19T09:44:00.238Z,72.47
2018-02-19T09:45:09.992Z,71.9
2018-02-19T09:46:19.763Z,72.09
2018-02-19T09:47:29.507Z,72.38
2018-02-19T09:48:39.036Z,71.9
2018-02-19T09:49:48.860Z,71.81
2018-02-19T09:50:58.421Z,70
2018-02-19T09:52:07.845Z,70.38
2018-02-19T09:53:17.655Z,72
2018-02-19T09:54:27.501Z,70.7
2018-02-19T09:55:36.847Z,68.58
2018-02-19T09:56:46.333Z,68.77
2018-02-19T09:57:56.124Z,69.81
2018-02-19T09:59:05.600Z,69.91
2018-02-19T10:00:15.648Z,68.86
2018-02-19T10:01:25.661Z,69.91
2018-02-19T10:02:35.711Z,70.76
2018-02-19T10:03:45.209Z,71.43
2018-02-19T10:04:54.155Z,71.23
2018-02-19T10:06:04.215Z,71.43
2018-02-19T10:07:13.981Z,71.23
2018-02-19T10:08:23.517Z,71.43
2018-02-19T10:09:33.546Z,71.23
2018-02-19T10:10:43.300Z,72
2018-02-19T10:11:52.511Z,69.66
2018-02-19T10:13:01.992Z,69.81
2018-02-19T10:14:11.743Z,70.48
2018-02-19T10:15:21.484Z,70.32
2018-02-19T10:16:31.398Z,69.66
2018-02-19T10:17:41.430Z,68.8
2018-02-19T10:18:51.474Z,68.61
2018-02-19T10:20:00.954Z,68.8
2018-02-19T10:21:10.513Z,69.27
2018-02-19T10:22:20.146Z,68.99
2018-02-19T10:23:29.891Z,69.37
2018-02-19T10:24:39.955Z,69.56
2018-02-19T10:25:49.170Z,69.09
2018-02-19T10:26:59.218Z,68.99
2018-02-19T10:28:08.461Z,69.37
2018-02-19T10:29:18.499Z,69.18
2018-02-19T10:30:27.726Z,68.13
2018-02-19T10:31:37.746Z,68.42
2018-02-19T10:32:47.880Z,68.27
2018-02-19T10:33:58.007Z,67.79
2018-02-19T10:35:08.152Z,68.36
2018-02-19T10:36:18.158Z,68.27
2018-02-19T10:37:28.193Z,68.36
2018-02-19T10:38:38.165Z,67.88
2018-02-19T10:39:47.649Z,67.5
2018-02-19T10:40:57.669Z,67.69
2018-02-19T10:42:06.937Z,67.5
2018-02-19T10:43:16.953Z,67.69
2018-02-19T10:44:26.485Z,67.69
2018-02-19T10:45:36.270Z,66.94
2018-02-19T10:46:46.020Z,66.84
2018-02-19T10:47:55.785Z,66.08
2018-02-19T10:49:04.738Z,65.99
2018-02-19T10:50:14.517Z,66.11
2018-02-19T10:51:24.284Z,64.69
2018-02-19T10:52:33.547Z,64.02
2018-02-19T10:53:43.310Z,64.5
2018-02-19T10:54:52.802Z,64.87
2018-02-19T10:56:02.553Z,64.87
2018-02-19T10:57:12.345Z,65.35
2018-02-19T10:58:21.663Z,65.64
2018-02-19T10:59:31.847Z,64.78
2018-02-19T11:00:41.707Z,64.69
2018-02-19T11:01:50.864Z,62.97
2018-02-19T11:03:01.082Z,61.35
2018-02-19T11:04:11.056Z,62.3
2018-02-19T11:05:21.092Z,63.07
2018-02-19T11:06:31.105Z,63.17
2018-02-19T11:07:41.055Z,63.35
2018-02-19T11:08:51.293Z,63.45
2018-02-19T11:10:01.316Z,63.64
2018-02-19T11:11:11.633Z,63.96
2018-02-19T11:12:21.352Z,63.76
2018-02-19T11:13:31.336Z,63.96
2018-02-19T11:14:41.639Z,64.24
2018-02-19T11:15:51.634Z,63.57
2018-02-19T11:17:01.555Z,61.58
2018-02-19T11:18:11.529Z,60.05
2018-02-19T11:19:21.266Z,59.01
2018-02-19T11:20:31.083Z,59.07
2018-02-19T11:21:41.039Z,59.55
2018-02-19T11:22:51.215Z,60.66
2018-02-19T11:24:01.472Z,60.66
2018-02-19T11:25:11.198Z,61.23
2018-02-19T11:26:20.937Z,63.04
2018-02-19T11:27:30.887Z,63.42
2018-02-19T11:28:41.146Z,64.46
2018-02-19T11:29:51.157Z,64.56
2018-02-19T11:31:01.376Z,64.56
2018-02-19T11:32:10.784Z,63.32
2018-02-19T11:33:20.761Z,62.02
2018-02-19T11:34:29.905Z,63.17
2018-02-19T11:35:39.596Z,63.83
2018-02-19T11:36:50.001Z,64.5
2018-02-19T11:37:59.998Z,64.4
2018-02-19T11:39:09.699Z,61.93
2018-02-19T11:40:20.037Z,62.4
2018-02-19T11:41:30.273Z,63.07
2018-02-19T11:42:40.498Z,64.21
2018-02-19T11:43:50.291Z,63.54
2018-02-19T11:45:00.340Z,63.92
2018-02-19T11:46:10.374Z,63.83
2018-02-19T11:47:20.392Z,64.59
2018-02-19T11:48:30.525Z,64.59
2018-02-19T11:49:40.005Z,64.21
2018-02-19T11:50:49.560Z,64.87
2018-02-19T11:51:59.662Z,64.65
2018-02-19T11:53:09.516Z,63.26
2018-02-19T11:54:19.775Z,61.32
2018-02-19T11:55:28.982Z,62.65
2018-02-19T11:56:38.875Z,63.79
2018-02-19T11:57:48.697Z,63.89
2018-02-19T11:58:58.064Z,64.87
2018-02-19T12:00:07.554Z,64.02
2018-02-19T12:01:17.297Z,63.54
2018-02-19T12:02:27.048Z,63.92
2018-02-19T12:03:36.570Z,64.11
2018-02-19T12:04:46.596Z,63.54
2018-02-19T12:05:56.612Z,63.45
2018-02-19T12:07:05.894Z,63.26
2018-02-19T12:08:15.488Z,63.45
2018-02-19T12:09:25.631Z,62.81
2018-02-19T12:10:35.393Z,60.72
2018-02-19T12:11:44.875Z,61.93
2018-02-19T12:12:54.623Z,62.97
2018-02-19T12:14:04.694Z,64.5
2018-02-19T12:15:15.573Z,64.59
2018-02-19T12:16:25.591Z,64.78
2018-02-19T12:17:35.609Z,64.59
2018-02-19T12:18:45.435Z,65.06
2018-02-19T12:19:55.254Z,64.5
2018-02-19T12:21:04.740Z,64.78
2018-02-19T12:22:14.662Z,64.87
2018-02-19T12:23:24.389Z,65.06
2018-02-19T12:24:34.534Z,64.78
2018-02-19T12:25:44.550Z,63.83
2018-02-19T12:26:55.532Z,63.64
2018-02-19T12:28:05.275Z,63.26
2018-02-19T12:29:14.897Z,63.35
2018-02-19T12:30:25.235Z,62.15
2018-02-19T12:31:34.921Z,61.64
2018-02-19T12:32:44.876Z,60.91
2018-02-19T12:33:54.591Z,59.1
2018-02-19T12:35:06.112Z,59.07
2018-02-19T12:36:16.478Z,59.07
2018-02-19T12:37:27.390Z,59.74
2018-02-19T12:38:37.586Z,58.69
2018-02-19T12:39:47.056Z,59.17
2018-02-19T12:40:57.880Z,58.95
2018-02-19T12:42:08.591Z,60.18
2018-02-19T12:43:18.429Z,60.38
2018-02-19T12:44:28.626Z,60.75
2018-02-19T12:45:38.667Z,60.75
2018-02-19T12:46:48.419Z,61.42
2018-02-19T12:47:57.891Z,61.74
2018-02-19T12:49:07.417Z,61.16
2018-02-19T12:50:17.501Z,59.74
2018-02-19T12:51:27.316Z,61.07
2018-02-19T12:52:37.219Z,60.78
2018-02-19T12:53:47.004Z,58.81
2018-02-19T12:54:57.049Z,58.81
2018-02-19T12:56:07.073Z,59.86
2018-02-19T12:57:16.822Z,58.15
2018-02-19T12:58:26.614Z,59.77
2018-02-19T12:59:37.340Z,58.65
2018-02-19T13:00:46.810Z,57.13
2018-02-19T13:01:56.499Z,56.85
2018-02-19T13:03:06.489Z,56.85
2018-02-19T13:04:15.753Z,57.42
2018-02-19T13:05:25.530Z,57.7
2018-02-19T13:06:35.853Z,58.75
2018-02-19T13:07:45.599Z,58.84
2018-02-19T13:08:56.017Z,59.83
2018-02-19T13:10:05.666Z,58.69
2018-02-19T13:11:15.522Z,58.3
2018-02-19T13:12:25.624Z,56.78
2018-02-19T13:13:34.889Z,56.11
2018-02-19T13:14:44.655Z,57.73
2018-02-19T13:15:54.231Z,58.87
2018-02-19T13:17:04.082Z,57.6
2018-02-19T13:18:13.617Z,54.56
2018-02-19T13:19:23.604Z,53.42
2018-02-19T13:20:33.400Z,54.47
2018-02-19T13:21:43.010Z,54.47
2018-02-19T13:22:52.297Z,55.42
2018-02-19T13:24:02.396Z,55.99
2018-02-19T13:25:12.458Z,56.09
2018-02-19T13:26:22.471Z,57.32
2018-02-19T13:27:32.136Z,55.73
2018-02-19T13:28:41.933Z,53.92
2018-02-19T13:29:51.414Z,53.73
2018-02-19T13:31:01.461Z,54.02
2018-02-19T13:32:11.247Z,54.02
2018-02-19T13:33:21.004Z,54.59
2018-02-19T13:34:30.876Z,55.83
2018-02-19T13:35:40.962Z,55.92
2018-02-19T13:36:50.460Z,54.39
2018-02-19T13:37:59.960Z,54.97
2018-02-19T13:39:09.799Z,56.68
2018-02-19T13:40:19.888Z,55.63
2018-02-19T13:41:29.653Z,55.07
2018-02-19T13:42:38.882Z,54.59
2018-02-19T13:43:48.929Z,55.07
2018-02-19T13:44:58.473Z,55.35
2018-02-19T13:46:09.116Z,54.9
2018-02-19T13:47:18.637Z,55.47
2018-02-19T13:48:28.544Z,56.43
2018-02-19T13:49:38.334Z,55.19
2018-02-19T13:50:48.088Z,53.38
2018-02-19T13:51:58.119Z,53.28
2018-02-19T13:53:07.900Z,54.45
2018-02-19T13:54:17.679Z,54.64
2018-02-19T13:55:26.703Z,53.88
2018-02-19T13:56:36.744Z,54.07
2018-02-19T13:57:46.776Z,55.79
2018-02-19T13:58:56.553Z,55.88
2018-02-19T14:00:06.583Z,53.78
2018-02-19T14:01:16.113Z,53.31
2018-02-19T14:02:25.917Z,52.52
2018-02-19T14:03:35.963Z,52.04
2018-02-19T14:04:45.996Z,51.85
2018-02-19T14:05:56.035Z,50.32
2018-02-19T14:07:06.085Z,50.61
2018-02-19T14:08:15.580Z,50.23
2018-02-19T14:09:25.637Z,50.52
2018-02-19T14:10:35.444Z,52.33
2018-02-19T14:11:45.199Z,52.14
2018-02-19T14:12:54.422Z,53.56
2018-02-19T14:14:04.272Z,54.71
2018-02-19T14:15:13.507Z,51.85
2018-02-19T14:16:23.255Z,52.3
2018-02-19T14:17:32.469Z,53.35
2018-02-19T14:18:41.964Z,54.3
2018-02-19T14:19:51.742Z,55.44
2018-02-19T14:21:01.760Z,56.21
2018-02-19T14:22:11.515Z,56.3
2018-02-19T14:23:21.275Z,56.97
2018-02-19T14:24:30.922Z,56.4
2018-02-19T14:25:41.009Z,56.59
2018-02-19T14:26:50.579Z,56.68
2018-02-19T14:28:00.646Z,56.3
2018-02-19T14:29:10.451Z,55.83
2018-02-19T14:30:20.475Z,55.73
2018-02-19T14:31:30.239Z,55.63
2018-02-19T14:32:40.332Z,54.68
2018-02-19T14:33:49.592Z,52.49
2018-02-19T14:34:59.679Z,51.73
2018-02-19T14:36:09.442Z,52.56
2018-02-19T14:37:19.189Z,55.7
2018-02-19T14:38:29.262Z,57.6
2018-02-19T14:39:38.479Z,58.28
2018-02-19T14:40:48.275Z,57.99
2018-02-19T14:41:58.156Z,57.23
2018-02-19T14:43:07.694Z,56.65
2018-02-19T14:44:17.720Z,54.66
2018-02-19T14:45:27.511Z,52.94
2018-02-19T14:46:37.250Z,53.23
2018-02-19T14:47:47.000Z,53.67
2018-02-19T14:48:56.642Z,54.25
2018-02-19T14:50:06.680Z,53.96
2018-02-19T14:51:16.539Z,55.49
2018-02-19T14:52:27.010Z,57.96
2018-02-19T14:53:36.785Z,59.01
2018-02-19T14:54:46.783Z,58.81
2018-02-19T14:55:56.377Z,59.2
2018-02-19T14:57:06.040Z,59.01
2018-02-19T14:58:15.935Z,59.01
2018-02-19T14:59:25.840Z,58.34
2018-02-19T15:00:35.763Z,57.01
2018-02-19T15:01:45.492Z,58.06
2018-02-19T15:02:55.284Z,58.81